Time;durP1;ratioP1;P1;durP2;ratioP2;P2;SDS_P1;SDS_P2;PMS_P1;PMS_P2;Temp;Humidity;BMP_temperature;BMP_pressure;BME280_temperature;BME280_humidity;BME280_pressure;Samples;Min_cycle;Max_cycle;Signal;HPM_P1;HPM_P2
2022/01/08 00:00:44;;;;;;;5.03;1.07;;;27.80;65.60;;;;;;5073211;28;20178;-76
2022/01/08 00:03:11;;;;;;;1.70;1.00;;;28.10;65.50;;;;;;5078188;28;20656;-74
2022/01/08 00:05:40;;;;;;;2.23;0.90;;;28.20;64.20;;;;;;5071212;28;20548;-76
2022/01/08 00:08:08;;;;;;;3.00;0.90;;;28.40;65.50;;;;;;5072501;28;20194;-74
2022/01/08 00:10:35;;;;;;;0.83;0.73;;;28.40;63.50;;;;;;5061747;28;20256;-74
2022/01/08 00:13:05;;;;;;;0.90;0.80;;;28.30;64.40;;;;;;5070482;28;20269;-74
2022/01/08 00:15:34;;;;;;;2.33;1.10;;;28.50;63.30;;;;;;5065358;28;20175;-73
2022/01/08 00:18:01;;;;;;;1.63;0.90;;;28.50;63.70;;;;;;5076701;28;20178;-74
2022/01/08 00:20:29;;;;;;;1.37;0.87;;;28.40;63.10;;;;;;5077385;28;20179;-76
2022/01/08 00:22:57;;;;;;;3.07;1.10;;;28.40;62.90;;;;;;5070702;28;20183;-74
2022/01/08 00:25:24;;;;;;;2.30;2.10;;;28.60;62.90;;;;;;5071955;28;20183;-74
2022/01/08 00:27:52;;;;;;;3.37;1.23;;;28.70;62.30;;;;;;5070002;28;20179;-76
2022/01/08 00:30:19;;;;;;;4.40;1.83;;;29.00;61.50;;;;;;5070785;28;20234;-75
2022/01/08 00:32:47;;;;;;;4.00;1.03;;;29.10;61.50;;;;;;5068915;28;20179;-74
2022/01/08 00:35:16;;;;;;;2.40;0.80;;;29.10;60.30;;;;;;5063977;28;20547;-75
2022/01/08 00:37:44;;;;;;;2.43;0.80;;;29.20;61.20;;;;;;5072209;28;20255;-76
2022/01/08 00:40:12;;;;;;;4.67;0.80;;;29.20;59.10;;;;;;5071473;28;20191;-77
2022/01/08 00:42:39;;;;;;;0.70;0.67;;;29.30;59.10;;;;;;5076424;28;20534;-74
2022/01/08 00:45:08;;;;;;;2.87;1.30;;;29.60;57.40;;;;;;5071828;28;20222;-75
2022/01/08 00:47:36;;;;;;;1.10;0.80;;;29.70;57.40;;;;;;5071484;28;20185;-74
2022/01/08 00:50:05;;;;;;;1.60;1.20;;;29.70;57.90;;;;;;5077069;28;20645;-74
2022/01/08 00:52:34;;;;;;;3.37;1.50;;;29.60;57.50;;;;;;5071985;28;20310;-75
2022/01/08 00:55:01;;;;;;;2.00;1.10;;;29.80;57.20;;;;;;5071478;28;20175;-77
2022/01/08 00:57:29;;;;;;;0.90;0.80;;;30.00;57.40;;;;;;5065631;28;20308;-75
2022/01/08 00:59:56;;;;;;;0.97;0.90;;;29.90;57.00;;;;;;5072271;28;20662;-74
2022/01/08 01:02:26;;;;;;;1.80;0.90;;;30.10;57.80;;;;;;5072088;28;20669;-74
2022/01/08 01:04:54;;;;;;;3.10;1.47;;;29.90;57.80;;;;;;5071585;28;20201;-75
2022/01/08 01:07:21;;;;;;;2.17;1.13;;;30.10;57.70;;;;;;5072099;28;20278;-74
2022/01/08 01:09:49;;;;;;;2.27;1.10;;;30.30;58.20;;;;;;5071200;28;20581;-73
2022/01/08 01:12:16;;;;;;;1.50;1.00;;;30.70;56.00;;;;;;5067187;28;20223;-73
2022/01/08 01:14:43;;;;;;;2.77;1.00;;;30.40;56.00;;;;;;5071782;28;20228;-73
2022/01/08 01:17:10;;;;;;;2.25;1.58;;;30.50;55.70;;;;;;5071407;28;20183;-74
2022/01/08 01:19:38;;;;;;;5.77;2.13;;;30.60;56.00;;;;;;5071479;28;20179;-75
2022/01/08 01:22:05;;;;;;;1.70;1.57;;;30.70;55.30;;;;;;5071643;28;20188;-74
2022/01/08 01:24:35;;;;;;;4.97;1.13;;;30.60;56.10;;;;;;5071920;28;20542;-74
2022/01/08 01:29:42;;;;;;;1.65;1.30;;;30.20;55.70;;;;;;5072014;28;20241;-75
2022/01/08 01:48:37;;;;;;;2.92;1.50;;;31.00;53.20;;;;;;5048192;28;20213;-74
2022/01/08 01:51:05;;;;;;;2.30;1.50;;;31.50;52.40;;;;;;5073768;28;20202;-76
2022/01/08 01:53:32;;;;;;;2.35;1.50;;;31.50;51.60;;;;;;5074952;28;20217;-75
2022/01/08 01:55:59;;;;;;;1.98;1.58;;;31.80;51.80;;;;;;5074667;28;20278;-74
2022/01/08 01:58:27;;;;;;;1.33;1.23;;;31.50;52.70;;;;;;5075978;28;20175;-74
2022/01/08 02:00:55;;;;;;;7.18;2.00;;;31.80;51.40;;;;;;5075415;28;20186;-73
2022/01/08 02:03:22;;;;;;;3.22;1.98;;;31.80;51.70;;;;;;5074995;28;20183;-75
2022/01/08 02:05:51;;;;;;;1.83;1.65;;;31.30;53.40;;;;;;5074420;28;20269;-77
2022/01/08 02:08:18;;;;;;;7.68;2.03;;;31.30;52.90;;;;;;5076008;28;20175;-74
2022/01/08 02:10:46;;;;;;;2.13;1.73;;;31.20;53.30;;;;;;5070408;28;20245;-75
2022/01/08 02:13:25;;;;;;;3.97;2.03;;;30.90;55.40;;;;;;5074511;28;20187;-74
2022/01/08 02:15:54;;;;;;;2.53;2.03;;;31.00;54.60;;;;;;5074199;28;20187;-75
2022/01/08 02:18:25;;;;;;;4.38;2.70;;;31.00;55.40;;;;;;5074176;28;20273;-72
2022/01/08 02:20:58;;;;;;;5.93;2.70;;;31.50;53.80;;;;;;5074083;28;20179;-72
2022/01/08 02:23:26;;;;;;;7.53;2.53;;;31.70;54.00;;;;;;5074737;28;20175;-72
2022/01/08 02:26:04;;;;;;;5.85;2.20;;;31.60;54.10;;;;;;5074279;28;20262;-73
2022/01/08 02:28:32;;;;;;;2.90;2.20;;;31.80;53.30;;;;;;5071324;28;20184;-74
2022/01/08 02:30:59;;;;;;;3.13;2.28;;;31.70;53.40;;;;;;5077036;28;20194;-76
2022/01/08 02:33:27;;;;;;;9.65;4.72;;;31.60;54.00;;;;;;5077472;28;20206;-73
2022/01/08 02:35:55;;;;;;;5.40;2.58;;;31.90;52.90;;;;;;5098598;28;20171;-73
2022/01/08 02:38:25;;;;;;;7.18;3.45;;;31.60;53.40;;;;;;5073650;28;20224;-73
2022/01/08 02:40:57;;;;;;;5.97;2.50;;;31.40;53.70;;;;;;5071144;28;20566;-72
2022/01/08 02:43:27;;;;;;;2.85;2.47;;;31.40;54.80;;;;;;5074170;28;20175;-72
2022/01/08 02:45:55;;;;;;;4.90;2.63;;;31.20;55.00;;;;;;5073365;28;20191;-72
2022/01/08 02:48:23;;;;;;;4.57;2.13;;;31.40;55.70;;;;;;5066625;28;20241;-74
2022/01/08 02:50:50;;;;;;;5.30;3.42;;;31.60;54.50;;;;;;5071804;28;20230;-73
2022/01/08 02:53:18;;;;;;;4.63;2.78;;;31.60;54.10;;;;;;5072624;28;20611;-74
2022/01/08 02:55:45;;;;;;;4.32;2.45;;;31.90;53.90;;;;;;5070408;28;20179;-73
2022/01/08 02:58:12;;;;;;;6.32;2.40;;;32.10;53.30;;;;;;5067114;28;20180;-74
2022/01/08 03:00:41;;;;;;;6.85;2.13;;;32.00;54.00;;;;;;5071234;28;20187;-74
2022/01/08 03:03:08;;;;;;;4.03;2.00;;;32.40;52.30;;;;;;5066463;28;20632;-74
2022/01/08 03:05:36;;;;;;;4.00;2.03;;;32.60;51.90;;;;;;5070097;28;20207;-74
2022/01/08 03:08:03;;;;;;;5.75;2.33;;;32.90;49.20;;;;;;5071895;28;20186;-75
2022/01/08 03:10:30;;;;;;;5.03;2.15;;;32.90;50.30;;;;;;5068010;28;20186;-75
2022/01/08 03:12:58;;;;;;;3.28;2.05;;;33.30;50.00;;;;;;5071767;28;20183;-74
2022/01/08 03:15:25;;;;;;;3.63;1.90;;;32.40;50.80;;;;;;5073131;28;20569;-77
2022/01/08 03:17:52;;;;;;;5.68;2.40;;;33.00;50.80;;;;;;5071822;28;20171;-75
2022/01/08 03:20:20;;;;;;;2.75;2.08;;;33.30;50.40;;;;;;5072896;28;20187;-73
2022/01/08 03:22:48;;;;;;;3.28;1.88;;;33.60;49.30;;;;;;5073111;28;20240;-72
2022/01/08 03:25:16;;;;;;;3.38;1.73;;;33.90;49.00;;;;;;5064960;28;20176;-74
2022/01/08 03:27:44;;;;;;;2.33;1.73;;;33.50;48.70;;;;;;5073262;28;20274;-73
2022/01/08 03:30:14;;;;;;;4.15;1.90;;;33.20;49.10;;;;;;5069147;28;20180;-72
2022/01/08 03:32:41;;;;;;;2.05;1.83;;;33.40;49.10;;;;;;5063311;28;20676;-73
2022/01/08 03:35:12;;;;;;;2.35;1.98;;;33.30;48.80;;;;;;5069999;28;20212;-75
2022/01/08 03:37:41;;;;;;;5.72;2.00;;;33.60;48.30;;;;;;5065766;28;20320;-73
2022/01/08 03:40:10;;;;;;;3.22;1.73;;;34.40;46.20;;;;;;5071813;28;20198;-74
2022/01/08 03:42:38;;;;;;;3.33;1.85;;;33.90;47.30;;;;;;5071383;28;20274;-73
2022/01/08 03:45:07;;;;;;;2.05;1.70;;;33.40;47.70;;;;;;5064778;28;20187;-73
2022/01/08 03:50:21;;;;;;;3.90;1.60;;;33.80;47.50;;;;;;5067505;28;20225;-74
2022/01/08 03:52:50;;;;;;;2.15;1.50;;;32.90;47.90;;;;;;5069129;28;20227;-74
2022/01/08 03:55:17;;;;;;;3.38;1.65;;;32.40;49.60;;;;;;5072300;28;20179;-79
2022/01/08 03:57:44;;;;;;;5.43;1.67;;;32.10;51.00;;;;;;5072743;28;20190;-74
2022/01/08 04:00:12;;;;;;;5.85;1.60;;;31.80;52.20;;;;;;5071569;28;20171;-75
2022/01/08 04:02:40;;;;;;;6.78;1.50;;;32.20;52.00;;;;;;5064877;28;20310;-73
2022/01/08 04:05:08;;;;;;;11.75;1.80;;;32.60;49.70;;;;;;5070626;28;20542;-74
2022/01/08 04:07:38;;;;;;;4.45;1.70;;;32.50;50.70;;;;;;5072501;28;20175;-74
2022/01/08 04:10:07;;;;;;;1.48;1.27;;;31.80;51.70;;;;;;5072460;28;21027;-76
2022/01/08 04:12:41;;;;;;;5.85;2.55;;;31.40;47.40;;;;;;5063679;28;20249;-75
2022/01/08 04:15:31;;;;;;;6.38;1.75;;;31.40;46.80;;;;;;5071956;28;20614;-72
2022/01/08 04:17:56;;;;;;;3.85;1.40;;;31.60;47.10;;;;;;5068355;28;20186;-75
2022/01/08 04:20:25;;;;;;;1.73;1.00;;;31.90;46.30;;;;;;5064232;28;20542;-74
2022/01/08 04:22:53;;;;;;;1.55;1.08;;;32.30;45.90;;;;;;5069259;28;20586;-74
2022/01/08 04:25:23;;;;;;;1.90;1.00;;;32.30;46.00;;;;;;5069477;28;20203;-74
2022/01/08 04:27:50;;;;;;;3.42;1.23;;;33.20;44.00;;;;;;5072140;28;20242;-75
2022/01/08 04:30:18;;;;;;;3.47;1.30;;;32.80;43.80;;;;;;5069992;28;20187;-76
2022/01/08 04:32:46;;;;;;;2.30;1.00;;;33.20;44.90;;;;;;5070015;28;20290;-72
2022/01/08 04:35:14;;;;;;;1.50;0.80;;;33.70;42.60;;;;;;5069885;28;20183;-76
2022/01/08 04:37:41;;;;;;;2.20;1.02;;;34.30;42.30;;;;;;5072153;28;20253;-74
2022/01/08 04:40:09;;;;;;;1.38;0.93;;;33.70;42.90;;;;;;5071745;28;20194;-74
2022/01/08 04:42:37;;;;;;;2.70;0.80;;;34.20;42.30;;;;;;5071325;28;20191;-77
2022/01/08 04:45:04;;;;;;;1.33;0.80;;;33.90;41.80;;;;;;5071728;28;20190;-75
2022/01/08 04:47:32;;;;;;;1.95;0.90;;;33.90;40.50;;;;;;5072174;28;20265;-74
2022/01/08 04:50:00;;;;;;;1.92;0.80;;;33.30;41.50;;;;;;5070905;28;20175;-80
2022/01/08 04:52:27;;;;;;;0.88;0.80;;;33.60;41.30;;;;;;5072364;28;20207;-73
2022/01/08 04:54:55;;;;;;;2.38;0.68;;;33.70;41.00;;;;;;5071944;28;20206;-73
2022/01/08 04:57:22;;;;;;;1.40;0.82;;;34.30;39.60;;;;;;5065011;28;20187;-73
2022/01/08 04:59:49;;;;;;;1.85;0.68;;;34.40;38.40;;;;;;5071737;28;20182;-73
2022/01/08 05:02:17;;;;;;;1.92;0.65;;;34.50;39.40;;;;;;5071999;28;20641;-77
2022/01/08 05:04:44;;;;;;;1.90;0.80;;;35.60;38.60;;;;;;5068639;28;20217;-77
2022/01/08 05:07:12;;;;;;;1.60;0.90;;;34.90;38.10;;;;;;5069878;28;20198;-77
2022/01/08 05:09:39;;;;;;;3.25;0.80;;;33.90;40.50;;;;;;5073982;28;20202;-78
2022/01/08 05:12:07;;;;;;;2.97;0.52;;;33.80;40.40;;;;;;5069242;28;20218;-74
2022/01/08 05:14:34;;;;;;;2.97;0.80;;;34.40;39.80;;;;;;5074596;28;20171;-78
2022/01/08 05:17:02;;;;;;;1.20;0.70;;;34.10;40.20;;;;;;5074131;28;20679;-82
2022/01/08 05:19:41;;;;;;;1.60;0.80;;;35.10;38.30;;;;;;5075414;28;20176;-79
2022/01/08 05:22:17;;;;;;;1.88;0.80;;;34.80;38.90;;;;;;5074903;28;20175;-77
2022/01/08 05:24:45;;;;;;;2.25;0.80;;;35.10;38.90;;;;;;5075234;28;20175;-75
2022/01/08 05:27:17;;;;;;;1.90;1.30;;;34.30;40.30;;;;;;5066510;28;20175;-74
2022/01/08 05:29:45;;;;;;;2.13;1.20;;;33.10;43.00;;;;;;5075488;28;20240;-73
2022/01/08 05:32:18;;;;;;;1.65;0.90;;;33.60;42.10;;;;;;5067386;28;20264;-76
2022/01/08 05:34:55;;;;;;;2.65;0.70;;;34.50;40.30;;;;;;5070533;28;20191;-75
2022/01/08 05:37:22;;;;;;;2.28;0.70;;;34.70;39.30;;;;;;5065950;28;20225;-76
2022/01/08 05:39:51;;;;;;;0.93;0.63;;;34.80;39.30;;;;;;5074685;28;20621;-75
2022/01/08 05:42:19;;;;;;;0.60;0.60;;;35.00;38.00;;;;;;5073335;28;20174;-75
2022/01/08 05:44:47;;;;;;;1.08;0.50;;;34.30;39.40;;;;;;5074254;28;20175;-75
2022/01/08 05:47:14;;;;;;;0.55;0.50;;;34.60;37.80;;;;;;5071167;28;20198;-75
2022/01/08 05:49:42;;;;;;;2.33;0.80;;;33.20;40.30;;;;;;5074197;28;20232;-76
2022/01/08 05:52:09;;;;;;;2.03;0.60;;;32.40;42.40;;;;;;5074889;28;20210;-75
2022/01/08 05:54:37;;;;;;;2.10;0.70;;;33.40;40.90;;;;;;5065375;28;20189;-76
2022/01/08 05:57:04;;;;;;;1.90;0.73;;;34.10;39.70;;;;;;5071240;28;20186;-76
2022/01/08 05:59:32;;;;;;;1.45;0.70;;;34.00;40.00;;;;;;5078335;28;20209;-77
2022/01/08 06:01:59;;;;;;;0.55;0.52;;;32.70;42.10;;;;;;5081619;28;20220;-75
2022/01/08 06:04:27;;;;;;;3.45;0.88;;;32.60;42.20;;;;;;5080307;28;20386;-76
2022/01/08 06:06:54;;;;;;;2.63;0.65;;;32.70;42.80;;;;;;5079818;28;20212;-78
2022/01/08 06:09:22;;;;;;;2.58;0.93;;;33.00;42.50;;;;;;5080859;28;20174;-76
2022/01/08 06:11:49;;;;;;;1.40;0.52;;;33.70;41.80;;;;;;5082309;28;20218;-78
2022/01/08 06:14:16;;;;;;;0.73;0.60;;;33.30;42.30;;;;;;5081913;28;20215;-80
2022/01/08 06:16:44;;;;;;;3.88;0.82;;;32.20;44.50;;;;;;5076760;28;20258;-76
2022/01/08 06:19:14;;;;;;;3.45;0.75;;;31.10;46.80;;;;;;5077011;28;20187;-80
2022/01/08 06:21:41;;;;;;;0.93;0.60;;;30.60;48.30;;;;;;5071262;28;20229;-76
2022/01/08 06:24:09;;;;;;;0.88;0.65;;;30.30;49.40;;;;;;5071426;28;20179;-76
2022/01/08 06:26:36;;;;;;;1.33;1.23;;;29.90;50.40;;;;;;5069065;28;20203;-75
2022/01/08 06:29:04;;;;;;;2.20;1.33;;;29.30;51.70;;;;;;5073316;28;20450;-74
2022/01/08 06:31:31;;;;;;;2.60;1.80;;;28.90;53.40;;;;;;5065477;28;20242;-75
2022/01/08 06:33:59;;;;;;;1.90;1.20;;;28.80;54.20;;;;;;5069699;28;20712;-74
2022/01/08 06:36:26;;;;;;;4.17;2.17;;;28.50;54.00;;;;;;5062171;28;20190;-77
2022/01/08 06:38:54;;;;;;;4.50;1.67;;;28.40;55.20;;;;;;5074305;28;20187;-74
2022/01/08 06:41:21;;;;;;;4.00;2.60;;;28.20;55.80;;;;;;5073994;28;20179;-74
2022/01/08 06:43:49;;;;;;;1.30;1.10;;;28.10;56.00;;;;;;5072314;28;20210;-71
2022/01/08 06:46:16;;;;;;;7.40;1.47;;;28.00;56.40;;;;;;5064682;28;20178;-77
2022/01/08 06:48:44;;;;;;;1.63;1.00;;;27.80;57.30;;;;;;5074078;28;20265;-77
2022/01/08 06:51:11;;;;;;;2.83;1.00;;;27.60;58.90;;;;;;5073583;28;20203;-77
2022/01/08 06:53:38;;;;;;;2.50;1.20;;;27.40;59.50;;;;;;5067019;28;20188;-77
2022/01/08 06:56:09;;;;;;;3.10;1.10;;;27.70;59.40;;;;;;5066220;28;20585;-82
2022/01/08 06:58:36;;;;;;;5.10;1.37;;;27.30;60.50;;;;;;5069604;28;20187;-80
2022/01/08 07:01:03;;;;;;;4.93;1.77;;;27.20;61.80;;;;;;5073319;28;20183;-76
2022/01/08 07:03:31;;;;;;;3.50;2.00;;;27.00;66.40;;;;;;5072482;28;20183;-76
2022/01/08 07:05:58;;;;;;;6.53;1.87;;;26.60;71.20;;;;;;5066971;28;20183;-74
2022/01/08 07:08:28;;;;;;;4.07;1.93;;;26.30;72.80;;;;;;5073884;28;20190;-74
2022/01/08 07:10:55;;;;;;;5.30;2.13;;;26.20;74.80;;;;;;5071348;28;20292;-76
2022/01/08 07:13:23;;;;;;;2.90;2.27;;;26.20;77.40;;;;;;5069717;28;20179;-76
2022/01/08 07:15:50;;;;;;;7.87;3.00;;;26.20;80.00;;;;;;5073116;28;20211;-75
2022/01/08 07:18:18;;;;;;;5.70;2.77;;;26.10;79.80;;;;;;5065292;28;20187;-76
2022/01/08 07:20:48;;;;;;;5.80;2.40;;;26.10;81.80;;;;;;5068423;28;20236;-77
2022/01/08 07:23:15;;;;;;;8.43;2.90;;;25.90;81.60;;;;;;5069725;28;20202;-75
2022/01/08 07:25:42;;;;;;;7.23;2.43;;;25.80;81.60;;;;;;5067918;28;20232;-74
2022/01/08 07:28:10;;;;;;;5.80;2.20;;;25.60;81.30;;;;;;5073314;28;20191;-74
2022/01/08 07:30:37;;;;;;;6.77;2.20;;;25.50;81.00;;;;;;5069815;28;20183;-77
2022/01/08 07:33:04;;;;;;;8.67;2.70;;;25.30;81.80;;;;;;5069164;28;20198;-73
2022/01/08 07:35:32;;;;;;;5.10;2.50;;;25.40;82.70;;;;;;5072117;28;20175;-76
2022/01/08 07:37:59;;;;;;;4.57;2.70;;;25.50;81.30;;;;;;5069445;28;20226;-75
2022/01/08 07:40:43;;;;;;;6.17;2.47;;;25.90;81.50;;;;;;5073006;28;20187;-77
2022/01/08 07:43:11;;;;;;;9.47;2.40;;;26.40;78.80;;;;;;5066555;28;20248;-76
2022/01/08 07:45:39;;;;;;;6.07;2.13;;;26.40;77.50;;;;;;5070264;28;20278;-74
2022/01/08 07:48:06;;;;;;;4.33;2.03;;;26.40;78.60;;;;;;5068300;28;20215;-74
2022/01/08 07:50:33;;;;;;;4.60;2.20;;;26.10;79.10;;;;;;5071303;28;20516;-75
2022/01/08 07:53:01;;;;;;;5.80;2.20;;;26.00;79.00;;;;;;5072770;28;20195;-75
2022/01/08 07:55:28;;;;;;;6.90;2.20;;;26.20;79.20;;;;;;5072038;28;20175;-78
2022/01/08 07:57:55;;;;;;;5.57;1.90;;;25.90;79.10;;;;;;5072216;28;20187;-74
2022/01/08 08:00:23;;;;;;;9.93;2.20;;;25.90;78.30;;;;;;5071689;28;20182;-76
2022/01/08 08:02:50;;;;;;;6.07;1.70;;;26.00;78.20;;;;;;5069735;28;20195;-75
2022/01/08 08:05:17;;;;;;;8.57;2.70;;;26.20;77.40;;;;;;5071003;28;20187;-74
2022/01/08 08:17:53;;;;;;;11.27;1.67;;;26.10;76.40;;;;;;5068255;28;20241;-76
2022/01/08 08:20:20;;;;;;;3.97;1.63;;;26.00;76.40;;;;;;5063091;28;20689;-76
2022/01/08 08:22:47;;;;;;;6.07;1.60;;;26.00;76.20;;;;;;5072259;28;20236;-75
2022/01/08 08:25:15;;;;;;;6.30;1.63;;;25.80;76.30;;;;;;5065835;28;20179;-75
2022/01/08 08:27:43;;;;;;;5.57;1.77;;;25.50;77.20;;;;;;5065781;28;20183;-75
2022/01/08 08:30:12;;;;;;;5.30;1.53;;;25.40;77.50;;;;;;5067594;28;20187;-75
2022/01/08 08:32:39;;;;;;;6.20;1.50;;;25.10;77.90;;;;;;5069428;28;20214;-74
2022/01/08 08:35:07;;;;;;;4.80;1.50;;;25.00;78.70;;;;;;5073854;28;20657;-76
2022/01/08 08:37:35;;;;;;;6.50;1.87;;;24.90;78.40;;;;;;5072093;28;20711;-75
2022/01/08 08:40:05;;;;;;;3.07;1.70;;;24.70;79.10;;;;;;5069559;28;20179;-74
2022/01/08 08:42:32;;;;;;;7.43;2.30;;;24.80;79.60;;;;;;5072270;28;20183;-74
2022/01/08 08:45:00;;;;;;;5.10;1.90;;;24.70;79.20;;;;;;5070765;28;20168;-77
2022/01/08 08:47:27;;;;;;;5.43;1.40;;;24.70;79.60;;;;;;5075850;28;20178;-75
2022/01/08 08:49:55;;;;;;;6.40;1.77;;;24.60;79.80;;;;;;5075657;28;20182;-76
2022/01/08 08:52:23;;;;;;;4.33;1.63;;;24.40;80.00;;;;;;5075943;28;20214;-75
2022/01/08 08:54:51;;;;;;;10.10;1.60;;;24.30;80.90;;;;;;5076107;28;20194;-76
2022/01/08 08:57:19;;;;;;;3.33;1.60;;;24.10;81.60;;;;;;5068721;28;20179;-75
2022/01/08 08:59:46;;;;;;;7.23;1.60;;;24.00;81.80;;;;;;5075809;28;20167;-76
2022/01/08 09:02:13;;;;;;;7.47;1.63;;;23.80;82.90;;;;;;5071060;28;20182;-76
2022/01/08 09:04:41;;;;;;;7.97;1.90;;;23.70;83.40;;;;;;5082388;28;20170;-76
2022/01/08 09:07:09;;;;;;;7.90;2.17;;;23.80;83.40;;;;;;5075637;28;20521;-80
2022/01/08 09:09:37;;;;;;;4.53;2.03;;;23.70;83.70;;;;;;5075997;28;20203;-76
2022/01/08 09:12:05;;;;;;;9.50;1.90;;;23.60;83.90;;;;;;5076948;28;20681;-76
2022/01/08 09:14:32;;;;;;;6.37;1.60;;;23.60;84.00;;;;;;5075918;28;20179;-76
2022/01/08 09:17:04;;;;;;;6.07;1.30;;;23.50;84.10;;;;;;5075845;28;20184;-77
2022/01/08 09:19:32;;;;;;;8.97;2.40;;;23.40;84.70;;;;;;5082040;28;20166;-78
2022/01/08 09:22:01;;;;;;;7.90;1.90;;;23.40;84.40;;;;;;5077071;28;20201;-78
2022/01/08 09:24:29;;;;;;;5.40;1.83;;;23.30;84.30;;;;;;5075581;28;20181;-74
2022/01/08 09:26:57;;;;;;;8.83;1.83;;;23.30;84.60;;;;;;5073784;28;20196;-76
2022/01/08 09:29:24;;;;;;;6.93;1.70;;;23.30;84.80;;;;;;5075328;28;20221;-81
2022/01/08 09:31:52;;;;;;;7.57;1.77;;;23.30;84.50;;;;;;5066299;28;20613;-76
2022/01/08 09:34:20;;;;;;;3.80;1.57;;;23.30;84.50;;;;;;5076343;28;20186;-76
2022/01/08 09:36:48;;;;;;;3.60;1.40;;;23.30;84.80;;;;;;5075104;28;20203;-78
2022/01/08 09:39:15;;;;;;;4.80;1.63;;;23.30;84.30;;;;;;5071365;28;20179;-77
2022/01/08 09:41:43;;;;;;;9.90;2.10;;;23.30;84.30;;;;;;5078026;28;20162;-78
2022/01/08 09:44:12;;;;;;;4.67;1.60;;;23.30;84.80;;;;;;5074188;28;20179;-76
2022/01/08 09:46:40;;;;;;;6.20;1.30;;;23.30;84.70;;;;;;5075447;28;20167;-74
2022/01/08 09:49:08;;;;;;;6.50;1.50;;;23.30;84.70;;;;;;5074331;28;20198;-76
2022/01/08 09:51:36;;;;;;;5.50;1.63;;;23.20;84.60;;;;;;5078494;28;20241;-76
2022/01/08 09:54:04;;;;;;;9.97;2.00;;;23.20;84.70;;;;;;5075068;28;20184;-76
2022/01/08 09:56:33;;;;;;;7.60;2.07;;;23.20;84.90;;;;;;5077082;28;20174;-75
2022/01/08 09:59:02;;;;;;;10.03;4.27;;;23.20;85.00;;;;;;5078514;28;20191;-76
2022/01/08 10:01:33;;;;;;;8.10;2.57;;;23.20;85.00;;;;;;5088768;28;20179;-74
2022/01/08 10:04:03;;;;;;;7.90;2.40;;;23.20;84.80;;;;;;5075719;28;20224;-75
2022/01/08 10:06:33;;;;;;;6.23;2.60;;;23.30;84.80;;;;;;5074925;28;20271;-76
2022/01/08 10:09:01;;;;;;;9.73;2.40;;;23.30;84.90;;;;;;5076609;28;20278;-75
2022/01/08 10:11:29;;;;;;;7.93;2.00;;;23.30;85.00;;;;;;5073936;28;20586;-75
2022/01/08 10:14:07;;;;;;;8.80;2.40;;;23.20;84.80;;;;;;5074302;28;20182;-76
2022/01/08 10:19:45;;;;;;;9.63;2.10;;;23.20;85.20;;;;;;5064397;28;20191;-76
2022/01/08 10:22:19;;;;;;;5.63;1.63;;;23.20;85.10;;;;;;5074093;28;20187;-76
2022/01/08 10:24:46;;;;;;;6.33;2.20;;;23.20;85.20;;;;;;5072073;28;20182;-76
2022/01/08 10:27:13;;;;;;;12.67;2.60;;;23.20;85.20;;;;;;5068947;28;20715;-76
2022/01/08 10:29:53;;;;;;;9.23;2.07;;;23.20;85.30;;;;;;5074567;28;20637;-76
2022/01/08 10:32:27;;;;;;;7.73;2.50;;;23.20;85.30;;;;;;5067703;28;20214;-79
2022/01/08 10:34:54;;;;;;;9.63;2.53;;;23.20;85.30;;;;;;5073676;28;20505;-76
2022/01/08 10:37:22;;;;;;;8.63;2.27;;;23.20;85.50;;;;;;5074128;28;20218;-76
2022/01/08 10:39:55;;;;;;;11.07;3.30;;;23.20;85.50;;;;;;5079314;28;20630;-76
2022/01/08 10:42:24;;;;;;;6.27;2.30;;;23.10;85.60;;;;;;5073407;28;20263;-76
2022/01/08 10:44:51;;;;;;;9.67;3.17;;;23.10;85.80;;;;;;5074507;28;20174;-76
2022/01/08 10:47:22;;;;;;;9.50;3.47;;;23.10;85.70;;;;;;5082171;28;20196;-79
2022/01/08 10:50:02;;;;;;;9.10;4.20;;;23.00;85.90;;;;;;5071098;28;20175;-77
2022/01/08 10:52:40;;;;;;;13.73;3.43;;;23.00;86.10;;;;;;5073483;28;20256;-75
2022/01/08 10:55:08;;;;;;;7.17;3.43;;;23.00;85.90;;;;;;5072417;28;20245;-76
2022/01/08 10:57:38;;;;;;;10.20;3.30;;;23.00;86.10;;;;;;5073591;28;20183;-81
2022/01/08 11:00:15;;;;;;;10.33;3.40;;;23.10;86.10;;;;;;5073967;28;20175;-76
2022/01/08 11:02:44;;;;;;;13.80;3.67;;;23.00;86.10;;;;;;5076682;28;20201;-76
2022/01/08 11:05:12;;;;;;;8.27;3.23;;;23.10;86.20;;;;;;5079803;28;20258;-76
2022/01/08 11:07:41;;;;;;;10.10;3.47;;;23.00;86.10;;;;;;5073218;28;20266;-75
2022/01/08 11:10:16;;;;;;;12.00;3.97;;;23.10;86.20;;;;;;5071487;28;20265;-75
2022/01/08 11:12:46;;;;;;;10.27;3.93;;;23.00;86.10;;;;;;5070998;28;20730;-75
2022/01/08 11:18:00;;;;;;;8.67;3.30;;;23.10;86.10;;;;;;5073303;28;20175;-75
2022/01/08 11:20:30;;;;;;;8.53;3.23;;;23.00;86.20;;;;;;5078550;28;20182;-75
2022/01/08 11:23:02;;;;;;;10.97;3.73;;;23.10;86.30;;;;;;5077488;28;20669;-75
2022/01/08 11:25:38;;;;;;;11.53;3.57;;;23.10;86.00;;;;;;5080748;28;20199;-75
2022/01/08 11:28:08;;;;;;;7.97;3.47;;;23.20;86.00;;;;;;5078674;28;20179;-76
2022/01/08 11:30:38;;;;;;;9.70;3.80;;;23.20;85.90;;;;;;5078794;28;20190;-76
2022/01/08 11:33:13;;;;;;;10.17;3.87;;;23.20;86.00;;;;;;5072197;28;20211;-76
2022/01/08 11:35:42;;;;;;;8.63;3.67;;;23.30;85.90;;;;;;5073401;28;20636;-76
2022/01/08 11:38:13;;;;;;;11.43;3.70;;;23.30;85.70;;;;;;5069522;28;20761;-75
2022/01/08 11:40:43;;;;;;;11.23;3.50;;;23.30;85.50;;;;;;5070088;28;20668;-75
2022/01/08 11:43:13;;;;;;;9.53;3.40;;;23.30;85.60;;;;;;5071059;28;20250;-79
2022/01/08 11:45:47;;;;;;;7.87;3.43;;;23.30;85.60;;;;;;5076515;28;20637;-77
2022/01/08 11:48:17;;;;;;;10.40;3.90;;;23.30;85.60;;;;;;5072493;28;20191;-76
2022/01/08 11:50:57;;;;;;;11.40;3.67;;;23.30;85.80;;;;;;5072546;28;20179;-75
2022/01/08 11:53:30;;;;;;;15.67;6.33;;;23.40;85.80;;;;;;5072410;28;20561;-76
2022/01/08 11:56:04;;;;;;;16.77;3.93;;;23.40;85.70;;;;;;5072365;28;20175;-75
2022/01/08 11:58:36;;;;;;;15.90;4.27;;;23.60;85.10;;;;;;5092372;27;20269;-76
2022/01/08 12:01:05;;;;;;;16.00;3.93;;;23.70;84.60;;;;;;5074944;28;20183;-76
2022/01/08 12:03:39;;;;;;;16.70;3.93;;;23.80;84.40;;;;;;5070772;28;20566;-76
2022/01/08 12:06:31;;;;;;;10.60;3.77;;;23.80;84.30;;;;;;5072738;28;20198;-76
2022/01/08 12:11:44;;;;;;;15.80;4.23;;;23.70;84.50;;;;;;5069387;28;20215;-76
2022/01/08 12:14:19;;;;;;;11.87;4.03;;;23.70;84.60;;;;;;5074046;28;20258;-76
2022/01/08 12:16:54;;;;;;;16.97;4.93;;;23.70;84.70;;;;;;5074514;28;20305;-77
2022/01/08 12:19:34;;;;;;;12.60;3.77;;;23.60;84.70;;;;;;5065724;28;20216;-77
2022/01/08 12:22:21;;;;;;;17.53;4.10;;;23.60;84.80;;;;;;5073093;28;20177;-82
2022/01/08 12:24:53;;;;;;;12.53;3.70;;;23.60;84.90;;;;;;5072352;28;20194;-76
2022/01/08 12:27:34;;;;;;;14.17;4.23;;;23.50;85.10;;;;;;5065541;28;20186;-77
2022/01/08 12:30:21;;;;;;;15.60;4.17;;;23.50;85.20;;;;;;5074905;28;20210;-78
2022/01/08 12:32:52;;;;;;;16.07;5.33;;;23.50;85.10;;;;;;5074535;28;20302;-76
2022/01/08 12:35:23;;;;;;;14.83;3.83;;;23.50;85.30;;;;;;5072272;28;20171;-75
2022/01/08 12:37:52;;;;;;;15.90;4.87;;;23.50;85.10;;;;;;5071986;28;20218;-77
2022/01/08 12:40:50;;;;;;;13.47;4.20;;;23.50;84.90;;;;;;5071937;28;20175;-76
2022/01/08 12:43:29;;;;;;;13.53;4.10;;;23.50;85.00;;;;;;5062167;28;20179;-76
2022/01/08 12:46:24;;;;;;;16.77;4.50;;;23.60;84.70;;;;;;5073380;28;20179;-78
2022/01/08 12:49:14;;;;;;;17.53;4.70;;;23.50;84.80;;;;;;5067720;28;20692;-79
2022/01/08 12:52:08;;;;;;;14.13;4.23;;;23.40;84.90;;;;;;5072170;28;20209;-76
2022/01/08 12:54:36;;;;;;;20.13;4.77;;;23.30;85.10;;;;;;5067417;28;20637;-80
2022/01/08 12:57:05;;;;;;;18.13;4.87;;;23.10;85.50;;;;;;5064923;28;20182;-80
2022/01/08 12:59:38;;;;;;;16.33;4.37;;;23.10;85.80;;;;;;5076976;28;20182;-77
2022/01/08 13:02:10;;;;;;;19.83;5.30;;;23.00;86.00;;;;;;5073076;28;20176;-79
2022/01/08 13:04:39;;;;;;;14.93;4.87;;;23.00;86.20;;;;;;5071705;28;20178;-80
2022/01/08 13:07:07;;;;;;;20.53;4.47;;;22.90;86.10;;;;;;5071694;28;20187;-77
2022/01/08 13:09:34;;;;;;;21.10;5.20;;;22.90;86.40;;;;;;5073337;28;20179;-80
2022/01/08 13:12:01;;;;;;;16.37;4.37;;;23.10;85.70;;;;;;5075756;28;20230;-80
2022/01/08 13:14:30;;;;;;;13.37;4.00;;;23.00;84.90;;;;;;5072021;28;20175;-80
2022/01/08 13:16:59;;;;;;;24.00;4.70;;;23.00;84.80;;;;;;5073129;28;20187;-76
2022/01/08 13:19:31;;;;;;;16.50;4.30;;;23.00;84.70;;;;;;5071529;28;20262;-74
2022/01/08 13:22:02;;;;;;;13.77;3.93;;;22.90;84.90;;;;;;5071709;28;20316;-76
2022/01/08 13:24:40;;;;;;;17.43;4.83;;;22.90;85.10;;;;;;5071505;28;20645;-78
2022/01/08 13:27:15;;;;;;;21.00;4.57;;;22.90;85.60;;;;;;5069900;28;20199;-75
2022/01/08 13:29:43;;;;;;;21.10;5.63;;;22.80;85.60;;;;;;5071961;28;20532;-77
2022/01/08 13:32:19;;;;;;;18.17;5.00;;;22.70;85.70;;;;;;5070361;28;20207;-76
2022/01/08 13:34:56;;;;;;;21.53;5.30;;;22.60;86.00;;;;;;5071577;28;20232;-77
2022/01/08 13:37:28;;;;;;;20.23;4.53;;;22.50;86.00;;;;;;5065058;28;20223;-78